sensor_id;sensor_type;location;lat;lon;timestamp;pressure;altitude;pressure_sealevel;temperature;humidity
48204;BME280;33994;50.998;5.864;2023-05-02T00:02:20;101458.81;;;10.36;88.94
48204;BME280;33994;50.998;5.864;2023-05-02T00:05:24;101461.47;;;10.32;89.40
48204;BME280;33994;50.998;5.864;2023-05-02T00:08:28;101463.22;;;10.34;89.49
48204;BME280;33994;50.998;5.864;2023-05-02T00:11:31;101454.47;;;10.35;88.98
48204;BME280;33994;50.998;5.864;2023-05-02T00:14:35;101457.97;;;10.36;88.76
48204;BME280;33994;50.998;5.864;2023-05-02T00:17:39;101454.50;;;10.34;88.73
48204;BME280;33994;50.998;5.864;2023-05-02T00:20:42;101463.22;;;10.31;88.87
48204;BME280;33994;50.998;5.864;2023-05-02T00:23:47;101467.56;;;10.29;88.94
48204;BME280;33994;50.998;5.864;2023-05-02T00:26:50;101477.16;;;10.29;89.12
48204;BME280;33994;50.998;5.864;2023-05-02T00:29:53;101473.69;;;10.27;89.35
48204;BME280;33994;50.998;5.864;2023-05-02T00:32:56;101473.72;;;10.22;89.54
48204;BME280;33994;50.998;5.864;2023-05-02T00:35:59;101483.28;;;10.23;90.51
48204;BME280;33994;50.998;5.864;2023-05-02T00:39:04;101486.78;;;10.16;90.76
48204;BME280;33994;50.998;5.864;2023-05-02T00:42:07;101491.16;;;10.11;91.22
48204;BME280;33994;50.998;5.864;2023-05-02T00:45:10;101492.91;;;10.07;91.65
48204;BME280;33994;50.998;5.864;2023-05-02T00:48:12;101495.50;;;10.06;92.17
48204;BME280;33994;50.998;5.864;2023-05-02T00:51:16;101504.25;;;10.08;92.39
48204;BME280;33994;50.998;5.864;2023-05-02T00:54:21;101499.88;;;10.08;92.91
48204;BME280;33994;50.998;5.864;2023-05-02T00:57:24;101505.09;;;10.11;93.25
48204;BME280;33994;50.998;5.864;2023-05-02T01:00:35;101502.50;;;10.11;93.86
48204;BME280;33994;50.998;5.864;2023-05-02T01:03:52;101512.94;;;10.13;94.25
48204;BME280;33994;50.998;5.864;2023-05-02T01:07:05;101505.97;;;10.15;94.41
48204;BME280;33994;50.998;5.864;2023-05-02T01:10:20;101513.78;;;10.19;94.70
48204;BME280;33994;50.998;5.864;2023-05-02T01:13:27;101512.88;;;10.25;94.65
48204;BME280;33994;50.998;5.864;2023-05-02T01:16:32;101519.00;;;10.27;94.77
48204;BME280;33994;50.998;5.864;2023-05-02T01:19:40;101510.28;;;10.31;94.99
48204;BME280;33994;50.998;5.864;2023-05-02T01:22:44;101509.38;;;10.35;94.71
48204;BME280;33994;50.998;5.864;2023-05-02T01:25:59;101513.69;;;10.47;94.00
48204;BME280;33994;50.998;5.864;2023-05-02T01:29:07;101507.56;;;10.56;93.43
48204;BME280;33994;50.998;5.864;2023-05-02T01:32:12;101508.44;;;10.61;92.92
48204;BME280;33994;50.998;5.864;2023-05-02T01:35:17;101509.28;;;10.60;93.12
48204;BME280;33994;50.998;5.864;2023-05-02T01:38:23;101509.28;;;10.66;92.66
48204;BME280;33994;50.998;5.864;2023-05-02T01:41:28;101505.75;;;10.70;92.63
48204;BME280;33994;50.998;5.864;2023-05-02T01:44:34;101511.00;;;10.67;92.74
48204;BME280;33994;50.998;5.864;2023-05-02T01:47:40;101511.88;;;10.67;92.82
48204;BME280;33994;50.998;5.864;2023-05-02T01:50:46;101513.63;;;10.67;93.06
48204;BME280;33994;50.998;5.864;2023-05-02T01:53:51;101511.00;;;10.73;93.01
48204;BME280;33994;50.998;5.864;2023-05-02T01:56:55;101506.59;;;10.75;92.50
48204;BME280;33994;50.998;5.864;2023-05-02T02:00:02;101512.72;;;10.71;93.02
48204;BME280;33994;50.998;5.864;2023-05-02T02:03:06;101516.22;;;10.70;92.77
48204;BME280;33994;50.998;5.864;2023-05-02T02:06:12;101515.38;;;10.69;93.12
48204;BME280;33994;50.998;5.864;2023-05-02T02:09:15;101517.09;;;10.72;93.26
48204;BME280;33994;50.998;5.864;2023-05-02T02:12:23;101514.50;;;10.69;93.42
48204;BME280;33994;50.998;5.864;2023-05-02T02:15:31;101537.16;;;10.70;93.40
48204;BME280;33994;50.998;5.864;2023-05-02T02:18:37;101532.78;;;10.67;93.60
48204;BME280;33994;50.998;5.864;2023-05-02T02:21:42;101534.56;;;10.71;93.24
48204;BME280;33994;50.998;5.864;2023-05-02T02:24:46;101535.41;;;10.72;93.03
48204;BME280;33994;50.998;5.864;2023-05-02T02:27:50;101542.38;;;10.76;92.94
48204;BME280;33994;50.998;5.864;2023-05-02T02:30:55;101538.88;;;10.80;92.75
48204;BME280;33994;50.998;5.864;2023-05-02T02:33:58;101538.88;;;10.80;92.66
48204;BME280;33994;50.998;5.864;2023-05-02T02:37:07;101538.00;;;10.78;93.12
48204;BME280;33994;50.998;5.864;2023-05-02T02:40:19;101537.16;;;10.73;93.40
48204;BME280;33994;50.998;5.864;2023-05-02T02:43:29;101543.25;;;10.74;93.76
48204;BME280;33994;50.998;5.864;2023-05-02T02:46:46;101539.78;;;10.70;94.10
48204;BME280;33994;50.998;5.864;2023-05-02T02:50:03;101545.03;;;10.65;94.43
48204;BME280;33994;50.998;5.864;2023-05-02T02:53:13;101543.28;;;10.64;95.00
48204;BME280;33994;50.998;5.864;2023-05-02T02:56:26;101550.25;;;10.62;94.95
48204;BME280;33994;50.998;5.864;2023-05-02T02:59:33;101552.91;;;10.61;94.96
48204;BME280;33994;50.998;5.864;2023-05-02T03:02:40;101552.03;;;10.60;94.98
48204;BME280;33994;50.998;5.864;2023-05-02T03:05:45;101553.75;;;10.61;94.97
48204;BME280;33994;50.998;5.864;2023-05-02T03:08:48;101548.53;;;10.60;95.20
48204;BME280;33994;50.998;5.864;2023-05-02T03:11:51;101559.00;;;10.61;95.15
48204;BME280;33994;50.998;5.864;2023-05-02T03:15:05;101557.25;;;10.60;95.14
48204;BME280;33994;50.998;5.864;2023-05-02T03:18:13;101560.78;;;10.56;95.18
48204;BME280;33994;50.998;5.864;2023-05-02T03:21:16;101565.09;;;10.56;95.16
48204;BME280;33994;50.998;5.864;2023-05-02T03:24:19;101568.59;;;10.58;95.32
48204;BME280;33994;50.998;5.864;2023-05-02T03:27:22;101569.47;;;10.58;95.13
48204;BME280;33994;50.998;5.864;2023-05-02T03:30:25;101577.28;;;10.60;94.79
48204;BME280;33994;50.998;5.864;2023-05-02T03:33:30;101572.06;;;10.60;94.58
48204;BME280;33994;50.998;5.864;2023-05-02T03:36:33;101578.19;;;10.60;94.59
48204;BME280;33994;50.998;5.864;2023-05-02T03:39:37;101586.91;;;10.58;94.46
48204;BME280;33994;50.998;5.864;2023-05-02T03:42:41;101593.03;;;10.57;94.56
48204;BME280;33994;50.998;5.864;2023-05-02T03:45:44;101596.50;;;10.56;94.62
48204;BME280;33994;50.998;5.864;2023-05-02T03:48:48;101599.09;;;10.56;94.73
48204;BME280;33994;50.998;5.864;2023-05-02T03:51:51;101602.59;;;10.55;94.72
48204;BME280;33994;50.998;5.864;2023-05-02T03:54:54;101608.72;;;10.54;94.31
48204;BME280;33994;50.998;5.864;2023-05-02T03:57:58;101607.00;;;10.50;93.78
48204;BME280;33994;50.998;5.864;2023-05-02T04:01:01;101617.44;;;10.46;93.64
48204;BME280;33994;50.998;5.864;2023-05-02T04:04:06;101621.81;;;10.43;93.66
48204;BME280;33994;50.998;5.864;2023-05-02T04:07:09;101627.94;;;10.37;93.23
48204;BME280;33994;50.998;5.864;2023-05-02T04:10:12;101634.03;;;10.30;93.23
48204;BME280;33994;50.998;5.864;2023-05-02T04:13:15;101639.25;;;10.27;93.08
48204;BME280;33994;50.998;5.864;2023-05-02T04:16:18;101636.66;;;10.24;93.13
48204;BME280;33994;50.998;5.864;2023-05-02T04:19:22;101648.88;;;10.19;93.34
48204;BME280;33994;50.998;5.864;2023-05-02T04:22:26;101652.34;;;10.15;93.43
48204;BME280;33994;50.998;5.864;2023-05-02T04:25:29;101654.06;;;10.13;93.74
48204;BME280;33994;50.998;5.864;2023-05-02T04:28:32;101657.56;;;10.12;93.73
48204;BME280;33994;50.998;5.864;2023-05-02T04:31:35;101655.84;;;10.11;93.74
48204;BME280;33994;50.998;5.864;2023-05-02T04:34:40;101661.03;;;10.09;93.83
48204;BME280;33994;50.998;5.864;2023-05-02T04:37:43;101650.59;;;10.08;93.86
48204;BME280;33994;50.998;5.864;2023-05-02T04:40:46;101658.44;;;10.03;93.73
48204;BME280;33994;50.998;5.864;2023-05-02T04:43:51;101662.78;;;10.01;93.79
48204;BME280;33994;50.998;5.864;2023-05-02T04:46:54;101668.00;;;10.01;93.88
48204;BME280;33994;50.998;5.864;2023-05-02T04:49:59;101671.50;;;10.00;94.01
48204;BME280;33994;50.998;5.864;2023-05-02T04:53:03;101676.72;;;10.02;93.79
48204;BME280;33994;50.998;5.864;2023-05-02T04:56:08;101683.69;;;10.03;93.82
48204;BME280;33994;50.998;5.864;2023-05-02T04:59:12;101688.94;;;10.00;93.70
48204;BME280;33994;50.998;5.864;2023-05-02T05:02:15;101688.91;;;9.98;93.64
48204;BME280;33994;50.998;5.864;2023-05-02T05:05:19;101695.88;;;9.97;93.84
48204;BME280;33994;50.998;5.864;2023-05-02T05:08:22;101705.47;;;9.98;93.78
48204;BME280;33994;50.998;5.864;2023-05-02T05:11:25;101697.63;;;9.98;93.86
48204;BME280;33994;50.998;5.864;2023-05-02T05:14:29;101703.72;;;9.97;93.85
48204;BME280;33994;50.998;5.864;2023-05-02T05:17:32;101708.06;;;9.98;93.57
48204;BME280;33994;50.998;5.864;2023-05-02T05:20:37;101714.19;;;9.99;93.54
48204;BME280;33994;50.998;5.864;2023-05-02T05:23:40;101714.19;;;10.01;93.75
48204;BME280;33994;50.998;5.864;2023-05-02T05:26:43;101718.53;;;10.02;93.78
48204;BME280;33994;50.998;5.864;2023-05-02T05:29:47;101723.78;;;10.05;93.91
48204;BME280;33994;50.998;5.864;2023-05-02T05:32:49;101727.28;;;10.07;93.73
48204;BME280;33994;50.998;5.864;2023-05-02T05:35:54;101728.16;;;10.30;93.81
48204;BME280;33994;50.998;5.864;2023-05-02T05:38:57;101735.13;;;10.31;93.06
48204;BME280;33994;50.998;5.864;2023-05-02T05:42:00;101734.28;;;10.26;92.95
48204;BME280;33994;50.998;5.864;2023-05-02T05:45:04;101741.22;;;10.22;93.15
48204;BME280;33994;50.998;5.864;2023-05-02T05:48:07;101744.72;;;10.20;93.42
48204;BME280;33994;50.998;5.864;2023-05-02T05:51:12;101751.69;;;10.19;93.83
48204;BME280;33994;50.998;5.864;2023-05-02T05:54:15;101747.28;;;10.14;93.89
48204;BME280;33994;50.998;5.864;2023-05-02T05:57:18;101755.16;;;10.15;94.61
48204;BME280;33994;50.998;5.864;2023-05-02T06:00:21;101759.53;;;10.15;94.63
48204;BME280;33994;50.998;5.864;2023-05-02T06:03:25;101766.50;;;10.14;94.77
48204;BME280;33994;50.998;5.864;2023-05-02T06:06:29;101768.22;;;10.15;94.79
48204;BME280;33994;50.998;5.864;2023-05-02T06:09:32;101769.09;;;10.16;95.03
48204;BME280;33994;50.998;5.864;2023-05-02T06:12:36;101775.22;;;10.19;95.24
48204;BME280;33994;50.998;5.864;2023-05-02T06:15:39;101771.72;;;10.20;95.02
48204;BME280;33994;50.998;5.864;2023-05-02T06:18:42;101777.81;;;10.19;95.34
48204;BME280;33994;50.998;5.864;2023-05-02T06:21:47;101781.28;;;10.17;95.61
48204;BME280;33994;50.998;5.864;2023-05-02T06:24:50;101787.38;;;10.17;96.02
48204;BME280;33994;50.998;5.864;2023-05-02T06:27:53;101793.50;;;10.18;96.15
48204;BME280;33994;50.998;5.864;2023-05-02T06:30:58;101803.94;;;10.18;95.84
48204;BME280;33994;50.998;5.864;2023-05-02T06:34:01;101802.22;;;10.11;95.92
48204;BME280;33994;50.998;5.864;2023-05-02T06:37:06;101806.56;;;10.12;96.05
48204;BME280;33994;50.998;5.864;2023-05-02T06:40:10;101817.03;;;10.16;95.58
48204;BME280;33994;50.998;5.864;2023-05-02T06:43:13;101814.41;;;10.13;94.70
48204;BME280;33994;50.998;5.864;2023-05-02T06:46:17;101820.50;;;10.09;93.47
48204;BME280;33994;50.998;5.864;2023-05-02T06:49:20;101840.50;;;10.06;91.72
48204;BME280;33994;50.998;5.864;2023-05-02T06:52:24;101843.13;;;10.04;90.20
48204;BME280;33994;50.998;5.864;2023-05-02T06:55:28;101845.72;;;10.03;89.34
48204;BME280;33994;50.998;5.864;2023-05-02T06:58:31;101844.00;;;10.05;88.11
48204;BME280;33994;50.998;5.864;2023-05-02T07:01:34;101850.09;;;10.10;87.89
48204;BME280;33994;50.998;5.864;2023-05-02T07:04:37;101851.88;;;10.21;87.03
48204;BME280;33994;50.998;5.864;2023-05-02T07:07:44;101853.66;;;10.24;84.86
48204;BME280;33994;50.998;5.864;2023-05-02T07:10:47;101857.16;;;10.34;84.22
48204;BME280;33994;50.998;5.864;2023-05-02T07:13:51;101863.28;;;10.43;83.31
48204;BME280;33994;50.998;5.864;2023-05-02T07:16:54;101860.69;;;10.53;82.73
48204;BME280;33994;50.998;5.864;2023-05-02T07:19:57;101868.56;;;10.65;81.62
48204;BME280;33994;50.998;5.864;2023-05-02T07:23:02;101878.13;;;10.67;80.64
48204;BME280;33994;50.998;5.864;2023-05-02T07:26:05;101879.00;;;10.71;80.55
48204;BME280;33994;50.998;5.864;2023-05-02T07:29:08;101877.31;;;10.79;80.26
48204;BME280;33994;50.998;5.864;2023-05-02T07:32:12;101882.56;;;10.88;79.80
48204;BME280;33994;50.998;5.864;2023-05-02T07:35:15;101891.31;;;10.95;79.05
48204;BME280;33994;50.998;5.864;2023-05-02T07:38:19;101896.53;;;11.00;77.57
48204;BME280;33994;50.998;5.864;2023-05-02T07:41:23;101907.00;;;11.03;76.36
48204;BME280;33994;50.998;5.864;2023-05-02T07:44:26;101912.22;;;11.01;75.38
48204;BME280;33994;50.998;5.864;2023-05-02T07:47:29;101908.75;;;11.07;75.37
48204;BME280;33994;50.998;5.864;2023-05-02T07:50:32;101919.22;;;11.11;74.86
48204;BME280;33994;50.998;5.864;2023-05-02T07:53:37;101914.00;;;11.10;75.09
48204;BME280;33994;50.998;5.864;2023-05-02T07:56:41;101914.00;;;11.14;75.07
48204;BME280;33994;50.998;5.864;2023-05-02T07:59:44;101912.25;;;11.18;75.45
48204;BME280;33994;50.998;5.864;2023-05-02T08:02:47;101914.88;;;11.15;74.75
48204;BME280;33994;50.998;5.864;2023-05-02T08:05:51;101922.72;;;11.15;74.70
48204;BME280;33994;50.998;5.864;2023-05-02T08:08:55;101924.47;;;11.25;73.61
48204;BME280;33994;50.998;5.864;2023-05-02T08:11:59;101924.47;;;11.37;72.56
48204;BME280;33994;50.998;5.864;2023-05-02T08:15:04;101923.56;;;11.43;71.33
48204;BME280;33994;50.998;5.864;2023-05-02T08:18:07;101923.56;;;11.38;71.27
48204;BME280;33994;50.998;5.864;2023-05-02T08:21:10;101920.97;;;11.34;71.29
48204;BME280;33994;50.998;5.864;2023-05-02T08:24:14;101920.97;;;11.28;71.07
48204;BME280;33994;50.998;5.864;2023-05-02T08:27:17;101927.94;;;11.30;71.21
48204;BME280;33994;50.998;5.864;2023-05-02T08:30:20;101928.81;;;11.37;71.27
48204;BME280;33994;50.998;5.864;2023-05-02T08:33:24;101932.31;;;11.45;71.03
48204;BME280;33994;50.998;5.864;2023-05-02T08:36:27;101940.16;;;11.47;70.89
48204;BME280;33994;50.998;5.864;2023-05-02T08:39:33;101939.28;;;11.41;69.80
48204;BME280;33994;50.998;5.864;2023-05-02T08:42:36;101941.91;;;11.44;69.79
48204;BME280;33994;50.998;5.864;2023-05-02T08:45:44;101948.03;;;11.42;69.50
48204;BME280;33994;50.998;5.864;2023-05-02T08:48:49;101948.00;;;11.43;69.29
48204;BME280;33994;50.998;5.864;2023-05-02T08:51:54;101946.28;;;11.53;68.70
48204;BME280;33994;50.998;5.864;2023-05-02T08:54:59;101955.88;;;11.60;68.30
48204;BME280;33994;50.998;5.864;2023-05-02T08:58:03;101961.09;;;11.59;67.56
48204;BME280;33994;50.998;5.864;2023-05-02T09:01:09;101955.84;;;11.59;67.28
48204;BME280;33994;50.998;5.864;2023-05-02T09:04:13;101961.13;;;11.60;67.53
48204;BME280;33994;50.998;5.864;2023-05-02T09:07:17;101962.88;;;11.60;66.83
48204;BME280;33994;50.998;5.864;2023-05-02T09:10:24;101973.34;;;11.57;66.58
48204;BME280;33994;50.998;5.864;2023-05-02T09:13:29;101989.06;;;11.57;67.36
48204;BME280;33994;50.998;5.864;2023-05-02T09:16:37;101979.44;;;11.47;67.56
48204;BME280;33994;50.998;5.864;2023-05-02T09:19:40;101988.19;;;11.46;67.84
48204;BME280;33994;50.998;5.864;2023-05-02T09:22:50;101993.44;;;11.46;67.97
48204;BME280;33994;50.998;5.864;2023-05-02T09:25:55;101981.19;;;11.48;68.01
48204;BME280;33994;50.998;5.864;2023-05-02T09:28:59;101982.06;;;11.59;67.88
48204;BME280;33994;50.998;5.864;2023-05-02T09:32:04;101990.78;;;11.70;68.27
48204;BME280;33994;50.998;5.864;2023-05-02T09:35:08;102009.13;;;11.76;68.27
48204;BME280;33994;50.998;5.864;2023-05-02T09:38:18;102003.91;;;11.65;68.86
48204;BME280;33994;50.998;5.864;2023-05-02T09:41:23;102015.25;;;11.57;68.95
48204;BME280;33994;50.998;5.864;2023-05-02T09:44:35;102018.75;;;11.48;69.04
48204;BME280;33994;50.998;5.864;2023-05-02T09:47:40;102024.00;;;11.53;69.51
48204;BME280;33994;50.998;5.864;2023-05-02T09:50:43;102033.59;;;11.61;68.94
48204;BME280;33994;50.998;5.864;2023-05-02T09:53:47;102040.59;;;11.56;68.44
48204;BME280;33994;50.998;5.864;2023-05-02T09:56:55;102037.97;;;11.55;68.22
48204;BME280;33994;50.998;5.864;2023-05-02T09:59:58;102038.84;;;11.64;68.30
48204;BME280;33994;50.998;5.864;2023-05-02T10:03:05;102037.97;;;11.64;67.32
48204;BME280;33994;50.998;5.864;2023-05-02T10:06:08;102034.47;;;11.59;67.14
48204;BME280;33994;50.998;5.864;2023-05-02T10:09:14;102037.09;;;11.62;66.99
48204;BME280;33994;50.998;5.864;2023-05-02T10:12:19;102038.84;;;11.54;66.62
48204;BME280;33994;50.998;5.864;2023-05-02T10:15:28;102039.69;;;11.59;66.45
48204;BME280;33994;50.998;5.864;2023-05-02T10:18:39;102041.44;;;11.74;65.34
48204;BME280;33994;50.998;5.864;2023-05-02T10:21:44;102054.56;;;11.77;65.31
48204;BME280;33994;50.998;5.864;2023-05-02T10:24:48;102042.34;;;11.79;65.12
48204;BME280;33994;50.998;5.864;2023-05-02T10:27:55;102034.47;;;11.74;64.67
48204;BME280;33994;50.998;5.864;2023-05-02T10:30:59;102051.06;;;11.76;64.79
48204;BME280;33994;50.998;5.864;2023-05-02T10:34:04;102047.59;;;11.79;65.06
48204;BME280;33994;50.998;5.864;2023-05-02T10:37:08;102050.19;;;11.79;64.55
48204;BME280;33994;50.998;5.864;2023-05-02T10:40:12;102051.94;;;11.69;64.42
48204;BME280;33994;50.998;5.864;2023-05-02T10:43:16;102052.81;;;11.74;64.52
48204;BME280;33994;50.998;5.864;2023-05-02T10:46:29;102044.94;;;11.74;62.65
48204;BME280;33994;50.998;5.864;2023-05-02T10:49:48;102047.59;;;11.79;62.54
48204;BME280;33994;50.998;5.864;2023-05-02T10:52:51;102046.69;;;11.84;63.06
48204;BME280;33994;50.998;5.864;2023-05-02T10:59:27;102037.94;;;11.95;61.44
48204;BME280;33994;50.998;5.864;2023-05-02T11:02:46;102044.03;;;12.07;60.08
48204;BME280;33994;50.998;5.864;2023-05-02T11:06:05;102036.19;;;12.06;60.36
48204;BME280;33994;50.998;5.864;2023-05-02T11:12:43;102050.16;;;12.17;60.09
48204;BME280;33994;50.998;5.864;2023-05-02T11:15:54;102044.03;;;12.07;60.49
48204;BME280;33994;50.998;5.864;2023-05-02T11:18:58;102040.56;;;12.13;60.99
48204;BME280;33994;50.998;5.864;2023-05-02T11:22:31;102042.28;;;12.22;60.42
48204;BME280;33994;50.998;5.864;2023-05-02T11:25:36;102041.41;;;12.33;60.36
48204;BME280;33994;50.998;5.864;2023-05-02T11:28:43;102039.63;;;12.35;59.59
48204;BME280;33994;50.998;5.864;2023-05-02T11:31:56;102044.91;;;12.32;58.71
48204;BME280;33994;50.998;5.864;2023-05-02T11:35:00;102042.25;;;12.31;59.58
48204;BME280;33994;50.998;5.864;2023-05-02T11:38:08;102043.13;;;12.31;59.73
48204;BME280;33994;50.998;5.864;2023-05-02T11:41:12;102051.84;;;12.43;59.67
48204;BME280;33994;50.998;5.864;2023-05-02T11:44:15;102058.88;;;12.40;59.47
48204;BME280;33994;50.998;5.864;2023-05-02T11:47:20;102057.13;;;12.39;59.39
48204;BME280;33994;50.998;5.864;2023-05-02T11:50:23;102053.63;;;12.37;59.26
48204;BME280;33994;50.998;5.864;2023-05-02T11:53:27;102052.75;;;12.38;58.87
48204;BME280;33994;50.998;5.864;2023-05-02T11:56:30;102056.22;;;12.39;58.94
48204;BME280;33994;50.998;5.864;2023-05-02T11:59:48;102057.97;;;12.38;58.44
48204;BME280;33994;50.998;5.864;2023-05-02T12:02:52;102066.72;;;12.42;58.48
48204;BME280;33994;50.998;5.864;2023-05-02T12:05:56;102057.97;;;12.51;58.70
48204;BME280;33994;50.998;5.864;2023-05-02T12:09:06;102063.22;;;12.49;57.08
48204;BME280;33994;50.998;5.864;2023-05-02T12:12:09;102071.09;;;12.45;57.50
48204;BME280;33994;50.998;5.864;2023-05-02T12:15:12;102069.31;;;12.47;57.18
48204;BME280;33994;50.998;5.864;2023-05-02T12:18:18;102075.47;;;12.43;56.76
48204;BME280;33994;50.998;5.864;2023-05-02T12:21:21;102079.84;;;12.42;56.60
48204;BME280;33994;50.998;5.864;2023-05-02T12:24:24;102080.72;;;12.43;56.34
48204;BME280;33994;50.998;5.864;2023-05-02T12:27:28;102083.34;;;12.46;56.53
48204;BME280;33994;50.998;5.864;2023-05-02T12:30:31;102085.94;;;12.52;56.09
48204;BME280;33994;50.998;5.864;2023-05-02T12:33:42;102081.56;;;12.55;55.26
48204;BME280;33994;50.998;5.864;2023-05-02T12:36:45;102081.53;;;12.61;55.61
48204;BME280;33994;50.998;5.864;2023-05-02T12:39:49;102093.78;;;12.70;54.73
48204;BME280;33994;50.998;5.864;2023-05-02T12:42:58;102090.28;;;12.57;54.10
48204;BME280;33994;50.998;5.864;2023-05-02T12:46:11;102086.84;;;12.48;54.08
48204;BME280;33994;50.998;5.864;2023-05-02T12:49:15;102077.22;;;12.51;54.74
48204;BME280;33994;50.998;5.864;2023-05-02T12:52:19;102087.63;;;12.65;54.68
48204;BME280;33994;50.998;5.864;2023-05-02T12:55:24;102091.16;;;12.67;54.16
48204;BME280;33994;50.998;5.864;2023-05-02T12:58:28;102094.66;;;12.63;53.60
48204;BME280;33994;50.998;5.864;2023-05-02T13:01:32;102095.56;;;12.56;53.48
48204;BME280;33994;50.998;5.864;2023-05-02T13:04:37;102102.59;;;12.48;52.69
48204;BME280;33994;50.998;5.864;2023-05-02T13:07:41;102098.22;;;12.42;52.85
48204;BME280;33994;50.998;5.864;2023-05-02T13:10:44;102100.84;;;12.44;53.02
48204;BME280;33994;50.998;5.864;2023-05-02T13:13:47;102099.06;;;12.49;53.11
48204;BME280;33994;50.998;5.864;2023-05-02T13:16:50;102096.44;;;12.50;52.48
48204;BME280;33994;50.998;5.864;2023-05-02T13:19:55;102102.59;;;12.51;52.45
48204;BME280;33994;50.998;5.864;2023-05-02T13:22:58;102099.06;;;12.52;52.55
48204;BME280;33994;50.998;5.864;2023-05-02T13:26:01;102100.81;;;12.56;52.72
48204;BME280;33994;50.998;5.864;2023-05-02T13:29:04;102104.31;;;12.55;52.26
48204;BME280;33994;50.998;5.864;2023-05-02T13:32:08;102113.06;;;12.51;52.07
48204;BME280;33994;50.998;5.864;2023-05-02T13:35:13;102098.22;;;12.45;51.64
48204;BME280;33994;50.998;5.864;2023-05-02T13:38:16;102102.59;;;12.51;51.73
48204;BME280;33994;50.998;5.864;2023-05-02T13:41:19;102109.53;;;12.58;51.86
48204;BME280;33994;50.998;5.864;2023-05-02T13:44:23;102107.78;;;12.57;51.79
48204;BME280;33994;50.998;5.864;2023-05-02T13:47:26;102109.53;;;12.56;51.41
48204;BME280;33994;50.998;5.864;2023-05-02T13:50:30;102114.78;;;12.56;50.96
48204;BME280;33994;50.998;5.864;2023-05-02T13:53:33;102114.78;;;12.61;51.49
48204;BME280;33994;50.998;5.864;2023-05-02T13:56:36;102111.25;;;12.71;50.93
48204;BME280;33994;50.998;5.864;2023-05-02T13:59:40;102107.75;;;12.75;50.75
48204;BME280;33994;50.998;5.864;2023-05-02T14:02:44;102106.84;;;12.76;50.74
48204;BME280;33994;50.998;5.864;2023-05-02T14:05:48;102100.75;;;12.74;50.95
48204;BME280;33994;50.998;5.864;2023-05-02T14:08:51;102111.25;;;12.70;50.74
48204;BME280;33994;50.998;5.864;2023-05-02T14:11:55;102099.03;;;12.64;51.07
48204;BME280;33994;50.998;5.864;2023-05-02T14:14:58;102099.91;;;12.68;51.03
48204;BME280;33994;50.998;5.864;2023-05-02T14:18:01;102104.22;;;12.73;51.38
48204;BME280;33994;50.998;5.864;2023-05-02T14:21:06;102099.00;;;12.78;52.31
48204;BME280;33994;50.998;5.864;2023-05-02T14:24:09;102099.81;;;12.87;52.29
48204;BME280;33994;50.998;5.864;2023-05-02T14:27:12;102095.41;;;12.96;51.88
48204;BME280;33994;50.998;5.864;2023-05-02T14:30:16;102101.50;;;13.02;51.59
48204;BME280;33994;50.998;5.864;2023-05-02T14:33:19;102098.81;;;13.13;50.81
48204;BME280;33994;50.998;5.864;2023-05-02T14:36:24;102098.81;;;13.16;49.62
48204;BME280;33994;50.998;5.864;2023-05-02T14:39:27;102095.38;;;13.05;49.42
48204;BME280;33994;50.998;5.864;2023-05-02T14:42:30;102102.41;;;12.98;49.55
48204;BME280;33994;50.998;5.864;2023-05-02T14:45:33;102086.72;;;12.81;49.25
48204;BME280;33994;50.998;5.864;2023-05-02T14:48:36;102088.47;;;12.79;48.99
48204;BME280;33994;50.998;5.864;2023-05-02T14:51:41;102092.00;;;12.75;48.84
48204;BME280;33994;50.998;5.864;2023-05-02T14:54:44;102082.34;;;12.80;48.95
48204;BME280;33994;50.998;5.864;2023-05-02T14:57:47;102084.06;;;12.84;48.96
48204;BME280;33994;50.998;5.864;2023-05-02T15:00:50;102089.34;;;12.83;48.83
48204;BME280;33994;50.998;5.864;2023-05-02T15:03:54;102091.97;;;12.80;48.77
48204;BME280;33994;50.998;5.864;2023-05-02T15:06:58;102097.25;;;12.75;48.27
48204;BME280;33994;50.998;5.864;2023-05-02T15:10:02;102096.31;;;12.81;48.39
48204;BME280;33994;50.998;5.864;2023-05-02T15:13:05;102093.72;;;12.85;47.71
48204;BME280;33994;50.998;5.864;2023-05-02T15:16:08;102091.06;;;12.90;47.88
48204;BME280;33994;50.998;5.864;2023-05-02T15:19:11;102086.69;;;12.87;47.36
48204;BME280;33994;50.998;5.864;2023-05-02T15:22:16;102089.34;;;12.83;47.30
48204;BME280;33994;50.998;5.864;2023-05-02T15:25:19;102088.47;;;12.79;47.14
48204;BME280;33994;50.998;5.864;2023-05-02T15:28:22;102091.97;;;12.78;47.18
48204;BME280;33994;50.998;5.864;2023-05-02T15:31:25;102093.75;;;12.78;46.65
48204;BME280;33994;50.998;5.864;2023-05-02T15:34:28;102092.00;;;12.74;46.68
48204;BME280;33994;50.998;5.864;2023-05-02T15:37:33;102095.47;;;12.77;46.94
48204;BME280;33994;50.998;5.864;2023-05-02T15:40:36;102082.34;;;12.80;47.17
48204;BME280;33994;50.998;5.864;2023-05-02T15:43:39;102091.09;;;12.79;47.55
48204;BME280;33994;50.998;5.864;2023-05-02T15:46:43;102087.56;;;12.85;47.38
48204;BME280;33994;50.998;5.864;2023-05-02T15:49:46;102090.19;;;12.86;47.19
48204;BME280;33994;50.998;5.864;2023-05-02T15:52:50;102101.56;;;12.87;46.73
48204;BME280;33994;50.998;5.864;2023-05-02T15:55:53;102094.56;;;12.86;46.65
48204;BME280;33994;50.998;5.864;2023-05-02T15:58:57;102089.31;;;12.84;46.53
48204;BME280;33994;50.998;5.864;2023-05-02T16:02:00;102094.56;;;12.86;46.81
48204;BME280;33994;50.998;5.864;2023-05-02T16:05:04;102097.19;;;12.84;46.71
48204;BME280;33994;50.998;5.864;2023-05-02T16:08:08;102091.06;;;12.81;46.24
48204;BME280;33994;50.998;5.864;2023-05-02T16:11:12;102104.22;;;12.82;46.25
48204;BME280;33994;50.998;5.864;2023-05-02T16:14:15;102100.72;;;12.77;46.22